sensor_id;sensor_type;location;lat;lon;timestamp;temperature;humidity
85333;DHT22;75747;53.652;10.168;2024-02-23T00:01:49;9.40;85.40
85333;DHT22;75747;53.652;10.168;2024-02-23T00:04:14;9.30;86.00
85333;DHT22;75747;53.652;10.168;2024-02-23T00:06:40;9.40;86.70
85333;DHT22;75747;53.652;10.168;2024-02-23T00:09:06;9.30;86.20
85333;DHT22;75747;53.652;10.168;2024-02-23T00:11:31;9.30;86.20
85333;DHT22;75747;53.652;10.168;2024-02-23T00:14:05;9.30;86.80
85333;DHT22;75747;53.652;10.168;2024-02-23T00:16:30;9.30;87.90
85333;DHT22;75747;53.652;10.168;2024-02-23T00:18:56;9.30;88.20
85333;DHT22;75747;53.652;10.168;2024-02-23T00:21:23;9.30;88.40
85333;DHT22;75747;53.652;10.168;2024-02-23T00:23:49;9.40;87.00
85333;DHT22;75747;53.652;10.168;2024-02-23T00:26:14;9.40;88.20
85333;DHT22;75747;53.652;10.168;2024-02-23T00:28:40;9.30;87.90
85333;DHT22;75747;53.652;10.168;2024-02-23T00:31:06;9.30;90.00
85333;DHT22;75747;53.652;10.168;2024-02-23T00:33:31;9.30;90.10
85333;DHT22;75747;53.652;10.168;2024-02-23T00:35:58;9.30;89.90
85333;DHT22;75747;53.652;10.168;2024-02-23T00:38:24;9.20;89.40
85333;DHT22;75747;53.652;10.168;2024-02-23T00:40:50;9.20;88.60
85333;DHT22;75747;53.652;10.168;2024-02-23T00:43:15;9.30;88.90
85333;DHT22;75747;53.652;10.168;2024-02-23T00:45:41;9.20;87.70
85333;DHT22;75747;53.652;10.168;2024-02-23T00:48:07;9.20;87.10
85333;DHT22;75747;53.652;10.168;2024-02-23T00:50:33;9.20;86.90
85333;DHT22;75747;53.652;10.168;2024-02-23T00:52:58;9.20;85.60
85333;DHT22;75747;53.652;10.168;2024-02-23T00:55:24;9.20;85.70
85333;DHT22;75747;53.652;10.168;2024-02-23T00:57:50;9.20;85.30
85333;DHT22;75747;53.652;10.168;2024-02-23T01:00:16;9.10;88.20
85333;DHT22;75747;53.652;10.168;2024-02-23T01:02:42;8.90;91.80
85333;DHT22;75747;53.652;10.168;2024-02-23T01:05:08;8.50;95.70
85333;DHT22;75747;53.652;10.168;2024-02-23T01:07:35;8.10;97.90
85333;DHT22;75747;53.652;10.168;2024-02-23T01:10:00;7.90;99.70
85333;DHT22;75747;53.652;10.168;2024-02-23T01:12:26;7.60;100.00
85333;DHT22;75747;53.652;10.168;2024-02-23T01:14:53;7.50;100.00
85333;DHT22;75747;53.652;10.168;2024-02-23T01:17:19;7.40;100.00
85333;DHT22;75747;53.652;10.168;2024-02-23T01:19:44;7.30;100.00
85333;DHT22;75747;53.652;10.168;2024-02-23T01:22:10;7.30;100.00
85333;DHT22;75747;53.652;10.168;2024-02-23T01:24:36;7.30;100.00
85333;DHT22;75747;53.652;10.168;2024-02-23T01:27:02;7.20;100.00
85333;DHT22;75747;53.652;10.168;2024-02-23T01:29:28;7.20;100.00
85333;DHT22;75747;53.652;10.168;2024-02-23T01:31:53;7.10;100.00
85333;DHT22;75747;53.652;10.168;2024-02-23T01:34:22;7.10;100.00
85333;DHT22;75747;53.652;10.168;2024-02-23T01:36:47;7.00;100.00
85333;DHT22;75747;53.652;10.168;2024-02-23T01:39:13;7.00;100.00
85333;DHT22;75747;53.652;10.168;2024-02-23T01:41:39;6.90;100.00
85333;DHT22;75747;53.652;10.168;2024-02-23T01:44:04;6.90;100.00
85333;DHT22;75747;53.652;10.168;2024-02-23T01:46:31;6.90;100.00
85333;DHT22;75747;53.652;10.168;2024-02-23T01:48:57;6.90;100.00
85333;DHT22;75747;53.652;10.168;2024-02-23T01:51:24;6.90;100.00
85333;DHT22;75747;53.652;10.168;2024-02-23T01:53:50;6.90;100.00
85333;DHT22;75747;53.652;10.168;2024-02-23T01:56:17;7.00;100.00
85333;DHT22;75747;53.652;10.168;2024-02-23T01:58:46;7.00;100.00
85333;DHT22;75747;53.652;10.168;2024-02-23T02:01:12;7.00;100.00
85333;DHT22;75747;53.652;10.168;2024-02-23T02:03:38;7.10;100.00
85333;DHT22;75747;53.652;10.168;2024-02-23T02:06:06;7.10;100.00
85333;DHT22;75747;53.652;10.168;2024-02-23T02:08:33;7.10;100.00
85333;DHT22;75747;53.652;10.168;2024-02-23T02:11:00;7.20;100.00
85333;DHT22;75747;53.652;10.168;2024-02-23T02:13:25;7.20;99.40
85333;DHT22;75747;53.652;10.168;2024-02-23T02:15:53;7.20;98.60
85333;DHT22;75747;53.652;10.168;2024-02-23T02:18:18;7.10;98.00
85333;DHT22;75747;53.652;10.168;2024-02-23T02:20:51;7.00;98.00
85333;DHT22;75747;53.652;10.168;2024-02-23T02:23:18;7.00;98.10
85333;DHT22;75747;53.652;10.168;2024-02-23T02:25:44;6.90;98.70
85333;DHT22;75747;53.652;10.168;2024-02-23T02:28:09;6.90;99.00
85333;DHT22;75747;53.652;10.168;2024-02-23T02:30:35;6.90;98.50
85333;DHT22;75747;53.652;10.168;2024-02-23T02:33:01;6.90;98.50
85333;DHT22;75747;53.652;10.168;2024-02-23T02:35:26;6.80;98.40
85333;DHT22;75747;53.652;10.168;2024-02-23T02:37:52;6.80;97.90
85333;DHT22;75747;53.652;10.168;2024-02-23T02:40:18;6.70;99.50
85333;DHT22;75747;53.652;10.168;2024-02-23T02:42:43;6.70;99.90
85333;DHT22;75747;53.652;10.168;2024-02-23T02:45:09;6.60;100.00
85333;DHT22;75747;53.652;10.168;2024-02-23T02:47:34;6.60;100.00
85333;DHT22;75747;53.652;10.168;2024-02-23T02:50:01;6.50;100.00
85333;DHT22;75747;53.652;10.168;2024-02-23T02:52:27;6.50;100.00
85333;DHT22;75747;53.652;10.168;2024-02-23T02:54:54;6.40;100.00
85333;DHT22;75747;53.652;10.168;2024-02-23T02:57:19;6.40;100.00
85333;DHT22;75747;53.652;10.168;2024-02-23T02:59:45;6.40;100.00
85333;DHT22;75747;53.652;10.168;2024-02-23T03:02:11;6.30;100.00
85333;DHT22;75747;53.652;10.168;2024-02-23T03:04:37;6.20;100.00
85333;DHT22;75747;53.652;10.168;2024-02-23T03:07:03;6.10;100.00
85333;DHT22;75747;53.652;10.168;2024-02-23T03:09:28;6.10;100.00
85333;DHT22;75747;53.652;10.168;2024-02-23T03:11:54;6.10;100.00
85333;DHT22;75747;53.652;10.168;2024-02-23T03:14:20;6.20;100.00
85333;DHT22;75747;53.652;10.168;2024-02-23T03:16:46;6.20;100.00
85333;DHT22;75747;53.652;10.168;2024-02-23T03:19:13;6.30;100.00
85333;DHT22;75747;53.652;10.168;2024-02-23T03:21:39;6.30;99.60
85333;DHT22;75747;53.652;10.168;2024-02-23T03:24:04;6.30;99.50
85333;DHT22;75747;53.652;10.168;2024-02-23T03:26:30;6.30;99.30
85333;DHT22;75747;53.652;10.168;2024-02-23T03:28:55;6.40;99.50
85333;DHT22;75747;53.652;10.168;2024-02-23T03:31:21;6.40;99.70
85333;DHT22;75747;53.652;10.168;2024-02-23T03:33:47;6.30;99.30
85333;DHT22;75747;53.652;10.168;2024-02-23T03:36:12;6.30;99.30
85333;DHT22;75747;53.652;10.168;2024-02-23T03:38:38;6.40;98.70
85333;DHT22;75747;53.652;10.168;2024-02-23T03:41:04;6.40;98.80
85333;DHT22;75747;53.652;10.168;2024-02-23T03:43:29;6.40;98.40
85333;DHT22;75747;53.652;10.168;2024-02-23T03:45:55;6.30;98.20
85333;DHT22;75747;53.652;10.168;2024-02-23T03:48:21;6.30;97.80
85333;DHT22;75747;53.652;10.168;2024-02-23T03:50:46;6.30;97.40
85333;DHT22;75747;53.652;10.168;2024-02-23T03:53:12;6.30;96.80
85333;DHT22;75747;53.652;10.168;2024-02-23T03:55:38;6.20;96.30
85333;DHT22;75747;53.652;10.168;2024-02-23T03:58:03;6.20;97.60
85333;DHT22;75747;53.652;10.168;2024-02-23T04:00:29;6.20;96.90
85333;DHT22;75747;53.652;10.168;2024-02-23T04:02:55;6.10;96.60
85333;DHT22;75747;53.652;10.168;2024-02-23T04:05:20;6.10;96.30
85333;DHT22;75747;53.652;10.168;2024-02-23T04:07:46;6.00;96.60
85333;DHT22;75747;53.652;10.168;2024-02-23T04:10:11;5.90;96.90
85333;DHT22;75747;53.652;10.168;2024-02-23T04:12:42;5.90;96.90
85333;DHT22;75747;53.652;10.168;2024-02-23T04:15:09;5.90;97.90
85333;DHT22;75747;53.652;10.168;2024-02-23T04:17:35;5.90;97.00
85333;DHT22;75747;53.652;10.168;2024-02-23T04:20:06;5.80;96.80
85333;DHT22;75747;53.652;10.168;2024-02-23T04:22:32;5.80;96.90
85333;DHT22;75747;53.652;10.168;2024-02-23T04:24:57;5.60;96.30
85333;DHT22;75747;53.652;10.168;2024-02-23T04:27:23;5.60;96.70
85333;DHT22;75747;53.652;10.168;2024-02-23T04:29:49;5.60;97.60
85333;DHT22;75747;53.652;10.168;2024-02-23T04:32:14;5.70;97.60
85333;DHT22;75747;53.652;10.168;2024-02-23T04:34:40;5.80;96.70
85333;DHT22;75747;53.652;10.168;2024-02-23T04:37:06;5.80;97.10
85333;DHT22;75747;53.652;10.168;2024-02-23T04:39:32;5.90;96.10
85333;DHT22;75747;53.652;10.168;2024-02-23T04:41:58;5.90;97.10
85333;DHT22;75747;53.652;10.168;2024-02-23T04:44:23;6.00;96.70
85333;DHT22;75747;53.652;10.168;2024-02-23T04:46:49;6.00;96.20
85333;DHT22;75747;53.652;10.168;2024-02-23T04:49:15;6.00;96.10
85333;DHT22;75747;53.652;10.168;2024-02-23T04:51:40;6.00;95.90
85333;DHT22;75747;53.652;10.168;2024-02-23T04:54:06;6.10;96.10
85333;DHT22;75747;53.652;10.168;2024-02-23T04:56:32;6.10;96.00
85333;DHT22;75747;53.652;10.168;2024-02-23T04:58:59;6.10;95.70
85333;DHT22;75747;53.652;10.168;2024-02-23T05:01:24;6.10;96.50
85333;DHT22;75747;53.652;10.168;2024-02-23T05:03:50;6.00;96.00
85333;DHT22;75747;53.652;10.168;2024-02-23T05:06:16;6.00;96.70
85333;DHT22;75747;53.652;10.168;2024-02-23T05:08:41;6.00;96.80
85333;DHT22;75747;53.652;10.168;2024-02-23T05:11:07;6.00;96.60
85333;DHT22;75747;53.652;10.168;2024-02-23T05:13:33;6.10;97.20
85333;DHT22;75747;53.652;10.168;2024-02-23T05:15:58;6.10;97.20
85333;DHT22;75747;53.652;10.168;2024-02-23T05:18:24;6.10;96.40
85333;DHT22;75747;53.652;10.168;2024-02-23T05:20:50;6.10;96.40
85333;DHT22;75747;53.652;10.168;2024-02-23T05:23:15;6.10;96.70
85333;DHT22;75747;53.652;10.168;2024-02-23T05:25:44;6.10;96.30
85333;DHT22;75747;53.652;10.168;2024-02-23T05:28:09;6.10;96.20
85333;DHT22;75747;53.652;10.168;2024-02-23T05:30:36;6.00;96.00
85333;DHT22;75747;53.652;10.168;2024-02-23T05:33:02;6.00;96.50
85333;DHT22;75747;53.652;10.168;2024-02-23T05:35:29;5.90;96.10
85333;DHT22;75747;53.652;10.168;2024-02-23T05:37:55;5.90;96.80
85333;DHT22;75747;53.652;10.168;2024-02-23T05:40:21;5.90;97.10
85333;DHT22;75747;53.652;10.168;2024-02-23T05:42:46;5.80;97.00
85333;DHT22;75747;53.652;10.168;2024-02-23T05:45:12;5.80;96.20
85333;DHT22;75747;53.652;10.168;2024-02-23T05:47:41;5.70;96.60
85333;DHT22;75747;53.652;10.168;2024-02-23T05:50:08;5.70;96.60
85333;DHT22;75747;53.652;10.168;2024-02-23T05:52:37;5.70;96.80
85333;DHT22;75747;53.652;10.168;2024-02-23T05:55:03;5.80;96.60
85333;DHT22;75747;53.652;10.168;2024-02-23T05:57:29;5.90;96.60
85333;DHT22;75747;53.652;10.168;2024-02-23T05:59:55;5.90;96.00
85333;DHT22;75747;53.652;10.168;2024-02-23T06:02:21;5.90;96.00
85333;DHT22;75747;53.652;10.168;2024-02-23T06:04:47;5.80;95.40
85333;DHT22;75747;53.652;10.168;2024-02-23T06:07:14;5.80;95.70
85333;DHT22;75747;53.652;10.168;2024-02-23T06:09:45;5.80;95.40
85333;DHT22;75747;53.652;10.168;2024-02-23T06:12:11;5.90;95.10
85333;DHT22;75747;53.652;10.168;2024-02-23T06:14:36;5.90;94.10
85333;DHT22;75747;53.652;10.168;2024-02-23T06:17:02;5.90;94.80
85333;DHT22;75747;53.652;10.168;2024-02-23T06:19:29;5.90;94.70
85333;DHT22;75747;53.652;10.168;2024-02-23T06:21:54;5.90;94.80
85333;DHT22;75747;53.652;10.168;2024-02-23T06:24:20;5.90;95.10
85333;DHT22;75747;53.652;10.168;2024-02-23T06:26:46;5.80;95.30
85333;DHT22;75747;53.652;10.168;2024-02-23T06:29:14;5.90;95.70
85333;DHT22;75747;53.652;10.168;2024-02-23T06:31:40;5.90;94.20
85333;DHT22;75747;53.652;10.168;2024-02-23T06:34:07;5.90;93.90
85333;DHT22;75747;53.652;10.168;2024-02-23T06:36:33;5.90;93.90
85333;DHT22;75747;53.652;10.168;2024-02-23T06:38:58;6.00;94.20
85333;DHT22;75747;53.652;10.168;2024-02-23T06:41:24;5.90;93.70
85333;DHT22;75747;53.652;10.168;2024-02-23T06:43:50;6.00;93.50
85333;DHT22;75747;53.652;10.168;2024-02-23T06:46:19;6.00;93.70
85333;DHT22;75747;53.652;10.168;2024-02-23T06:48:45;6.00;93.40
85333;DHT22;75747;53.652;10.168;2024-02-23T06:51:11;5.90;93.50
85333;DHT22;75747;53.652;10.168;2024-02-23T06:53:37;5.90;93.20
85333;DHT22;75747;53.652;10.168;2024-02-23T06:56:03;5.90;93.60
85333;DHT22;75747;53.652;10.168;2024-02-23T06:58:29;5.90;93.70
85333;DHT22;75747;53.652;10.168;2024-02-23T07:00:55;5.90;93.10
85333;DHT22;75747;53.652;10.168;2024-02-23T07:03:21;5.90;93.50
85333;DHT22;75747;53.652;10.168;2024-02-23T07:05:47;5.80;92.70
85333;DHT22;75747;53.652;10.168;2024-02-23T07:08:15;5.90;93.70
85333;DHT22;75747;53.652;10.168;2024-02-23T07:10:41;5.90;94.10
85333;DHT22;75747;53.652;10.168;2024-02-23T07:13:07;6.00;93.60
85333;DHT22;75747;53.652;10.168;2024-02-23T07:15:33;6.10;93.80
85333;DHT22;75747;53.652;10.168;2024-02-23T07:17:59;6.20;93.90
85333;DHT22;75747;53.652;10.168;2024-02-23T07:20:24;6.20;93.20
85333;DHT22;75747;53.652;10.168;2024-02-23T07:22:50;6.20;93.00
85333;DHT22;75747;53.652;10.168;2024-02-23T07:25:19;6.20;93.60
85333;DHT22;75747;53.652;10.168;2024-02-23T07:27:46;6.30;92.90
85333;DHT22;75747;53.652;10.168;2024-02-23T07:30:12;6.30;93.00
85333;DHT22;75747;53.652;10.168;2024-02-23T07:32:38;6.30;93.20
85333;DHT22;75747;53.652;10.168;2024-02-23T07:35:04;6.20;93.00
85333;DHT22;75747;53.652;10.168;2024-02-23T07:37:30;6.20;92.70
85333;DHT22;75747;53.652;10.168;2024-02-23T07:39:56;6.20;93.20
85333;DHT22;75747;53.652;10.168;2024-02-23T07:42:21;6.10;93.50
85333;DHT22;75747;53.652;10.168;2024-02-23T07:44:47;6.10;93.70
85333;DHT22;75747;53.652;10.168;2024-02-23T07:47:13;6.10;93.60
85333;DHT22;75747;53.652;10.168;2024-02-23T07:49:38;6.20;93.90
85333;DHT22;75747;53.652;10.168;2024-02-23T07:52:06;6.20;92.40
85333;DHT22;75747;53.652;10.168;2024-02-23T07:54:33;6.20;92.00
85333;DHT22;75747;53.652;10.168;2024-02-23T07:56:59;6.20;92.50
85333;DHT22;75747;53.652;10.168;2024-02-23T07:59:25;6.20;92.90
85333;DHT22;75747;53.652;10.168;2024-02-23T08:01:50;6.20;93.20
85333;DHT22;75747;53.652;10.168;2024-02-23T08:04:16;6.30;93.20
85333;DHT22;75747;53.652;10.168;2024-02-23T08:06:42;6.30;92.20
85333;DHT22;75747;53.652;10.168;2024-02-23T08:09:09;6.20;92.10
85333;DHT22;75747;53.652;10.168;2024-02-23T08:11:35;6.30;93.10
85333;DHT22;75747;53.652;10.168;2024-02-23T08:14:01;6.30;93.60
85333;DHT22;75747;53.652;10.168;2024-02-23T08:16:28;6.40;93.30
85333;DHT22;75747;53.652;10.168;2024-02-23T08:18:54;6.40;92.90
85333;DHT22;75747;53.652;10.168;2024-02-23T08:21:20;6.40;92.00
85333;DHT22;75747;53.652;10.168;2024-02-23T08:23:45;6.30;92.50
85333;DHT22;75747;53.652;10.168;2024-02-23T08:26:11;6.30;92.30
85333;DHT22;75747;53.652;10.168;2024-02-23T08:28:37;6.40;92.50
85333;DHT22;75747;53.652;10.168;2024-02-23T08:31:02;6.40;91.40
85333;DHT22;75747;53.652;10.168;2024-02-23T08:33:28;6.40;91.10
85333;DHT22;75747;53.652;10.168;2024-02-23T08:35:54;6.40;91.30
85333;DHT22;75747;53.652;10.168;2024-02-23T08:38:20;6.40;90.20
85333;DHT22;75747;53.652;10.168;2024-02-23T08:40:45;6.50;90.50
85333;DHT22;75747;53.652;10.168;2024-02-23T08:43:11;6.50;89.40
85333;DHT22;75747;53.652;10.168;2024-02-23T08:45:37;6.50;89.80
85333;DHT22;75747;53.652;10.168;2024-02-23T08:48:03;6.60;90.20
85333;DHT22;75747;53.652;10.168;2024-02-23T08:50:29;6.70;89.20
85333;DHT22;75747;53.652;10.168;2024-02-23T08:52:55;6.90;88.90
85333;DHT22;75747;53.652;10.168;2024-02-23T08:55:20;7.00;87.70
85333;DHT22;75747;53.652;10.168;2024-02-23T08:57:47;7.10;87.00
85333;DHT22;75747;53.652;10.168;2024-02-23T09:00:13;7.20;86.50
85333;DHT22;75747;53.652;10.168;2024-02-23T09:02:40;7.40;85.40
85333;DHT22;75747;53.652;10.168;2024-02-23T09:05:08;7.50;85.50
85333;DHT22;75747;53.652;10.168;2024-02-23T09:07:34;7.60;84.20
85333;DHT22;75747;53.652;10.168;2024-02-23T09:09:59;7.70;84.30
85333;DHT22;75747;53.652;10.168;2024-02-23T09:12:25;7.70;84.20
85333;DHT22;75747;53.652;10.168;2024-02-23T09:14:51;7.80;83.40
85333;DHT22;75747;53.652;10.168;2024-02-23T09:17:17;7.80;83.10
85333;DHT22;75747;53.652;10.168;2024-02-23T09:19:44;7.80;81.70
85333;DHT22;75747;53.652;10.168;2024-02-23T09:22:10;7.80;82.80
85333;DHT22;75747;53.652;10.168;2024-02-23T09:24:39;7.80;82.30
85333;DHT22;75747;53.652;10.168;2024-02-23T09:27:05;7.90;82.60
85333;DHT22;75747;53.652;10.168;2024-02-23T09:29:32;7.90;82.00
85333;DHT22;75747;53.652;10.168;2024-02-23T09:31:58;8.00;82.10
85333;DHT22;75747;53.652;10.168;2024-02-23T09:34:24;8.00;81.50
85333;DHT22;75747;53.652;10.168;2024-02-23T09:36:50;8.00;80.60
85333;DHT22;75747;53.652;10.168;2024-02-23T09:39:16;8.00;81.20
85333;DHT22;75747;53.652;10.168;2024-02-23T09:41:42;8.00;80.40
85333;DHT22;75747;53.652;10.168;2024-02-23T09:44:09;8.10;82.20
85333;DHT22;75747;53.652;10.168;2024-02-23T09:46:37;8.20;81.40
85333;DHT22;75747;53.652;10.168;2024-02-23T09:49:03;8.10;81.00
85333;DHT22;75747;53.652;10.168;2024-02-23T09:51:31;8.10;79.90
85333;DHT22;75747;53.652;10.168;2024-02-23T09:53:58;8.10;79.20
85333;DHT22;75747;53.652;10.168;2024-02-23T09:56:27;8.10;79.30
85333;DHT22;75747;53.652;10.168;2024-02-23T09:58:56;8.10;79.10
85333;DHT22;75747;53.652;10.168;2024-02-23T10:01:28;8.20;79.60
85333;DHT22;75747;53.652;10.168;2024-02-23T10:03:57;8.30;79.30
85333;DHT22;75747;53.652;10.168;2024-02-23T10:06:26;8.30;79.40
85333;DHT22;75747;53.652;10.168;2024-02-23T10:08:53;8.50;80.10
85333;DHT22;75747;53.652;10.168;2024-02-23T10:11:23;8.60;79.70
85333;DHT22;75747;53.652;10.168;2024-02-23T10:13:49;8.70;80.10
85333;DHT22;75747;53.652;10.168;2024-02-23T10:16:16;8.70;76.90
85333;DHT22;75747;53.652;10.168;2024-02-23T10:18:42;8.80;77.30
85333;DHT22;75747;53.652;10.168;2024-02-23T10:21:08;8.80;77.60
85333;DHT22;75747;53.652;10.168;2024-02-23T10:23:33;8.80;77.20
85333;DHT22;75747;53.652;10.168;2024-02-23T10:25:59;8.80;77.40
85333;DHT22;75747;53.652;10.168;2024-02-23T10:28:25;9.00;78.70
85333;DHT22;75747;53.652;10.168;2024-02-23T10:30:50;9.20;77.90
85333;DHT22;75747;53.652;10.168;2024-02-23T10:33:19;9.20;76.30
85333;DHT22;75747;53.652;10.168;2024-02-23T10:35:50;9.20;74.90
85333;DHT22;75747;53.652;10.168;2024-02-23T10:38:21;9.20;75.40
85333;DHT22;75747;53.652;10.168;2024-02-23T10:40:48;9.10;74.60
85333;DHT22;75747;53.652;10.168;2024-02-23T10:43:19;8.90;75.60
85333;DHT22;75747;53.652;10.168;2024-02-23T10:45:46;9.00;76.00
85333;DHT22;75747;53.652;10.168;2024-02-23T10:48:13;8.90;76.00
85333;DHT22;75747;53.652;10.168;2024-02-23T10:50:41;8.90;76.40
85333;DHT22;75747;53.652;10.168;2024-02-23T10:53:10;8.90;75.20
85333;DHT22;75747;53.652;10.168;2024-02-23T10:55:37;9.00;75.10
85333;DHT22;75747;53.652;10.168;2024-02-23T10:58:06;9.00;76.40
85333;DHT22;75747;53.652;10.168;2024-02-23T11:00:34;9.10;74.90
85333;DHT22;75747;53.652;10.168;2024-02-23T11:03:00;9.30;74.20
85333;DHT22;75747;53.652;10.168;2024-02-23T11:05:28;9.40;75.00
85333;DHT22;75747;53.652;10.168;2024-02-23T11:07:58;9.60;74.00
85333;DHT22;75747;53.652;10.168;2024-02-23T11:10:24;9.60;72.60
85333;DHT22;75747;53.652;10.168;2024-02-23T11:12:59;9.60;72.60
85333;DHT22;75747;53.652;10.168;2024-02-23T11:15:26;9.50;72.30
85333;DHT22;75747;53.652;10.168;2024-02-23T11:17:52;9.50;73.10
85333;DHT22;75747;53.652;10.168;2024-02-23T11:20:18;9.50;73.40
85333;DHT22;75747;53.652;10.168;2024-02-23T11:22:44;9.50;72.60
85333;DHT22;75747;53.652;10.168;2024-02-23T11:25:17;9.50;72.90
85333;DHT22;75747;53.652;10.168;2024-02-23T11:27:44;9.60;72.60
85333;DHT22;75747;53.652;10.168;2024-02-23T11:30:10;9.70;72.40
85333;DHT22;75747;53.652;10.168;2024-02-23T11:32:44;9.70;71.70
85333;DHT22;75747;53.652;10.168;2024-02-23T11:35:12;9.60;71.40
85333;DHT22;75747;53.652;10.168;2024-02-23T11:37:56;9.70;71.20
85333;DHT22;75747;53.652;10.168;2024-02-23T11:40:29;9.60;70.30
85333;DHT22;75747;53.652;10.168;2024-02-23T11:42:55;9.60;70.80
85333;DHT22;75747;53.652;10.168;2024-02-23T11:45:21;9.60;70.70
85333;DHT22;75747;53.652;10.168;2024-02-23T11:47:47;9.60;70.50
85333;DHT22;75747;53.652;10.168;2024-02-23T11:50:13;9.60;71.00
85333;DHT22;75747;53.652;10.168;2024-02-23T11:52:41;9.60;71.20
85333;DHT22;75747;53.652;10.168;2024-02-23T11:55:07;9.50;70.60
85333;DHT22;75747;53.652;10.168;2024-02-23T11:57:36;9.60;71.10
85333;DHT22;75747;53.652;10.168;2024-02-23T12:00:05;9.60;70.80
85333;DHT22;75747;53.652;10.168;2024-02-23T12:02:37;9.70;71.10
85333;DHT22;75747;53.652;10.168;2024-02-23T12:05:03;9.80;71.00
85333;DHT22;75747;53.652;10.168;2024-02-23T12:07:29;9.90;70.30
85333;DHT22;75747;53.652;10.168;2024-02-23T12:09:56;9.90;71.30
85333;DHT22;75747;53.652;10.168;2024-02-23T12:12:23;10.00;71.50
85333;DHT22;75747;53.652;10.168;2024-02-23T12:14:49;10.00;71.10
85333;DHT22;75747;53.652;10.168;2024-02-23T12:17:15;10.00;71.90
85333;DHT22;75747;53.652;10.168;2024-02-23T12:19:41;9.90;70.10
85333;DHT22;75747;53.652;10.168;2024-02-23T12:22:07;9.90;70.40
85333;DHT22;75747;53.652;10.168;2024-02-23T12:24:34;9.90;70.30
85333;DHT22;75747;53.652;10.168;2024-02-23T12:27:00;9.90;70.00
85333;DHT22;75747;53.652;10.168;2024-02-23T12:29:25;9.90;70.70
85333;DHT22;75747;53.652;10.168;2024-02-23T12:32:02;9.70;69.20
85333;DHT22;75747;53.652;10.168;2024-02-23T12:34:29;9.60;69.20
85333;DHT22;75747;53.652;10.168;2024-02-23T12:36:55;9.60;69.50
85333;DHT22;75747;53.652;10.168;2024-02-23T12:39:21;9.50;70.20
85333;DHT22;75747;53.652;10.168;2024-02-23T12:41:46;9.50;69.60
85333;DHT22;75747;53.652;10.168;2024-02-23T12:44:12;9.60;69.50
85333;DHT22;75747;53.652;10.168;2024-02-23T12:46:38;9.50;68.70
85333;DHT22;75747;53.652;10.168;2024-02-23T12:49:03;9.30;67.20
85333;DHT22;75747;53.652;10.168;2024-02-23T12:51:29;9.30;68.50
85333;DHT22;75747;53.652;10.168;2024-02-23T12:53:55;9.30;69.40
85333;DHT22;75747;53.652;10.168;2024-02-23T12:56:21;9.40;69.20
85333;DHT22;75747;53.652;10.168;2024-02-23T12:58:47;9.50;69.20
85333;DHT22;75747;53.652;10.168;2024-02-23T13:01:12;9.50;68.80
85333;DHT22;75747;53.652;10.168;2024-02-23T13:03:39;9.50;68.20
85333;DHT22;75747;53.652;10.168;2024-02-23T13:06:07;9.50;68.20
85333;DHT22;75747;53.652;10.168;2024-02-23T13:08:33;9.50;68.90
85333;DHT22;75747;53.652;10.168;2024-02-23T13:11:00;9.40;67.90
85333;DHT22;75747;53.652;10.168;2024-02-23T13:13:26;9.40;68.40
85333;DHT22;75747;53.652;10.168;2024-02-23T13:15:53;9.50;68.60
85333;DHT22;75747;53.652;10.168;2024-02-23T13:18:19;9.50;67.70
85333;DHT22;75747;53.652;10.168;2024-02-23T13:20:44;9.60;68.10
85333;DHT22;75747;53.652;10.168;2024-02-23T13:23:11;9.50;67.50
85333;DHT22;75747;53.652;10.168;2024-02-23T13:25:38;9.50;68.50
85333;DHT22;75747;53.652;10.168;2024-02-23T13:28:04;9.60;67.80
85333;DHT22;75747;53.652;10.168;2024-02-23T13:30:30;9.60;68.10
85333;DHT22;75747;53.652;10.168;2024-02-23T13:32:56;9.60;68.30
85333;DHT22;75747;53.652;10.168;2024-02-23T13:35:22;9.70;68.50
85333;DHT22;75747;53.652;10.168;2024-02-23T13:37:48;9.70;67.90
85333;DHT22;75747;53.652;10.168;2024-02-23T13:40:14;9.70;68.30
85333;DHT22;75747;53.652;10.168;2024-02-23T13:42:40;9.60;68.90
85333;DHT22;75747;53.652;10.168;2024-02-23T13:45:09;9.50;69.30
85333;DHT22;75747;53.652;10.168;2024-02-23T13:47:35;9.50;68.90
85333;DHT22;75747;53.652;10.168;2024-02-23T13:50:02;9.40;69.50
85333;DHT22;75747;53.652;10.168;2024-02-23T13:52:28;9.30;69.10
85333;DHT22;75747;53.652;10.168;2024-02-23T13:54:54;9.30;68.50
85333;DHT22;75747;53.652;10.168;2024-02-23T13:57:19;9.20;68.70
85333;DHT22;75747;53.652;10.168;2024-02-23T13:59:45;9.20;68.90
85333;DHT22;75747;53.652;10.168;2024-02-23T14:02:11;9.10;68.50
85333;DHT22;75747;53.652;10.168;2024-02-23T14:04:37;9.00;68.40
85333;DHT22;75747;53.652;10.168;2024-02-23T14:07:03;9.00;68.30
85333;DHT22;75747;53.652;10.168;2024-02-23T14:09:30;9.00;68.60
85333;DHT22;75747;53.652;10.168;2024-02-23T14:11:56;9.00;69.00
85333;DHT22;75747;53.652;10.168;2024-02-23T14:14:21;9.00;69.30
85333;DHT22;75747;53.652;10.168;2024-02-23T14:16:48;9.00;69.10
85333;DHT22;75747;53.652;10.168;2024-02-23T14:19:13;9.00;70.00
85333;DHT22;75747;53.652;10.168;2024-02-23T14:21:39;9.00;69.90
85333;DHT22;75747;53.652;10.168;2024-02-23T14:24:05;9.00;68.60
85333;DHT22;75747;53.652;10.168;2024-02-23T14:26:31;9.10;68.10
85333;DHT22;75747;53.652;10.168;2024-02-23T14:28:57;9.10;68.20
85333;DHT22;75747;53.652;10.168;2024-02-23T14:31:24;9.20;67.30
85333;DHT22;75747;53.652;10.168;2024-02-23T14:33:50;9.30;68.50
85333;DHT22;75747;53.652;10.168;2024-02-23T14:36:17;9.40;68.70
85333;DHT22;75747;53.652;10.168;2024-02-23T14:38:42;9.50;68.30
85333;DHT22;75747;53.652;10.168;2024-02-23T14:41:09;9.60;67.30
85333;DHT22;75747;53.652;10.168;2024-02-23T14:43:35;9.70;67.30
85333;DHT22;75747;53.652;10.168;2024-02-23T14:46:01;9.70;65.50
85333;DHT22;75747;53.652;10.168;2024-02-23T14:48:27;9.50;65.30
85333;DHT22;75747;53.652;10.168;2024-02-23T14:50:53;9.40;66.50
85333;DHT22;75747;53.652;10.168;2024-02-23T14:53:19;9.40;66.80
85333;DHT22;75747;53.652;10.168;2024-02-23T14:55:46;9.30;67.40
85333;DHT22;75747;53.652;10.168;2024-02-23T14:58:12;9.30;67.40
85333;DHT22;75747;53.652;10.168;2024-02-23T15:00:38;9.30;66.90
85333;DHT22;75747;53.652;10.168;2024-02-23T15:03:04;9.30;66.80
85333;DHT22;75747;53.652;10.168;2024-02-23T15:05:30;9.30;66.70
85333;DHT22;75747;53.652;10.168;2024-02-23T15:07:55;9.30;67.90
85333;DHT22;75747;53.652;10.168;2024-02-23T15:10:21;9.30;67.70
85333;DHT22;75747;53.652;10.168;2024-02-23T15:12:47;9.30;67.80
85333;DHT22;75747;53.652;10.168;2024-02-23T15:15:13;9.30;69.10
85333;DHT22;75747;53.652;10.168;2024-02-23T15:17:39;9.30;70.50
85333;DHT22;75747;53.652;10.168;2024-02-23T15:20:08;9.20;69.20
85333;DHT22;75747;53.652;10.168;2024-02-23T15:22:34;9.20;68.60
85333;DHT22;75747;53.652;10.168;2024-02-23T15:25:00;9.20;68.40